createdAt,value
2023-04-24T00:00:10.275Z,0.40
2023-04-24T00:02:40.991Z,0.52
2023-04-24T00:05:09.057Z,0.50
2023-04-24T00:07:36.036Z,0.40
2023-04-24T00:10:02.823Z,0.30
2023-04-24T00:12:29.507Z,0.60
2023-04-24T00:14:56.162Z,0.57
2023-04-24T00:17:22.902Z,0.40
2023-04-24T00:19:52.155Z,0.40
2023-04-24T00:22:19.277Z,0.43
2023-04-24T00:24:45.946Z,0.30
2023-04-24T00:27:12.608Z,0.30
2023-04-24T00:29:39.231Z,0.40
2023-04-24T00:32:05.972Z,0.47
2023-04-24T00:34:33.549Z,0.40
2023-04-24T00:37:00.470Z,0.43
2023-04-24T00:39:27.302Z,0.32
2023-04-24T00:41:54.196Z,0.40
2023-04-24T00:44:20.859Z,0.40
2023-04-24T00:46:48.348Z,0.30
2023-04-24T00:49:15.252Z,0.30
2023-04-24T00:51:46.450Z,0.30
2023-04-24T00:54:14.013Z,0.55
2023-04-24T00:56:42.304Z,0.43
2023-04-24T00:59:09.632Z,0.38
2023-04-24T01:01:37.026Z,0.40
2023-04-24T01:04:04.046Z,0.52
2023-04-24T01:06:32.196Z,0.30
2023-04-24T01:09:01.312Z,0.30
2023-04-24T01:11:27.950Z,0.57
2023-04-24T01:13:54.587Z,0.60
2023-04-24T01:16:24.272Z,0.40
2023-04-24T01:18:51.044Z,0.22
2023-04-24T01:21:18.916Z,0.40
2023-04-24T01:23:46.201Z,0.60
2023-04-24T01:26:14.686Z,0.38
2023-04-24T01:28:41.573Z,0.43
2023-04-24T01:31:08.261Z,0.60
2023-04-24T01:33:35.372Z,0.52
2023-04-24T01:36:02.224Z,0.38
2023-04-24T01:38:28.872Z,0.40
2023-04-24T01:40:55.754Z,0.30
2023-04-24T01:43:22.910Z,0.50
2023-04-24T01:45:49.576Z,0.60
2023-04-24T01:48:16.362Z,0.40
2023-04-24T01:50:43.212Z,0.55
2023-04-24T01:53:09.962Z,0.40
2023-04-24T01:55:36.639Z,0.40
2023-04-24T01:58:03.431Z,0.52
2023-04-24T02:00:30.191Z,0.40
2023-04-24T02:02:57.171Z,0.68
2023-04-24T02:05:24.079Z,0.50
2023-04-24T02:07:50.845Z,0.55
2023-04-24T02:10:17.504Z,0.60
2023-04-24T02:12:44.169Z,0.38
2023-04-24T02:15:11.416Z,0.32
2023-04-24T02:17:38.207Z,0.50
2023-04-24T02:20:06.667Z,0.55
2023-04-24T02:22:33.384Z,0.50
2023-04-24T02:25:00.187Z,0.70
2023-04-24T02:27:26.866Z,0.68
2023-04-24T02:29:53.493Z,0.60
2023-04-24T02:32:20.192Z,0.60
2023-04-24T02:34:46.886Z,0.50
2023-04-24T02:37:13.770Z,0.60
2023-04-24T02:39:41.659Z,0.70
2023-04-24T02:42:09.017Z,0.52
2023-04-24T02:44:36.062Z,0.63
2023-04-24T02:47:02.733Z,0.52
2023-04-24T02:49:29.379Z,0.55
2023-04-24T02:51:56.042Z,0.70
2023-04-24T02:54:22.699Z,0.98
2023-04-24T02:56:49.361Z,0.80
2023-04-24T02:59:15.990Z,0.63
2023-04-24T03:01:42.719Z,0.60
2023-04-24T03:04:09.652Z,0.60
2023-04-24T03:06:36.527Z,0.70
2023-04-24T03:09:04.465Z,0.55
2023-04-24T03:11:31.103Z,0.73
2023-04-24T03:13:57.748Z,0.50
2023-04-24T03:16:24.479Z,0.50
2023-04-24T03:18:51.120Z,0.68
2023-04-24T03:21:17.835Z,0.90
2023-04-24T03:23:44.482Z,2.00
2023-04-24T03:26:11.339Z,0.73
2023-04-24T03:28:37.977Z,0.80
2023-04-24T03:31:04.938Z,0.80
2023-04-24T03:33:31.677Z,0.85
2023-04-24T03:35:58.405Z,0.90
2023-04-24T03:38:25.031Z,0.80
2023-04-24T03:40:51.689Z,0.60
2023-04-24T03:43:18.355Z,0.68
2023-04-24T03:45:45.025Z,0.70
2023-04-24T03:48:11.871Z,0.93
2023-04-24T03:50:38.532Z,0.70
2023-04-24T03:53:05.294Z,0.52
2023-04-24T03:55:31.952Z,0.70
2023-04-24T03:57:58.600Z,0.80
2023-04-24T04:00:25.572Z,0.70
2023-04-24T04:02:52.318Z,1.10
2023-04-24T04:05:19.150Z,0.80
2023-04-24T04:07:46.005Z,0.90
2023-04-24T04:10:12.656Z,0.77
2023-04-24T04:12:39.314Z,0.90
2023-04-24T04:15:07.858Z,0.65
2023-04-24T04:17:34.574Z,0.80
2023-04-24T04:20:02.000Z,0.75
2023-04-24T04:22:28.661Z,0.77
2023-04-24T04:24:55.309Z,0.77
2023-04-24T04:27:22.183Z,0.90
2023-04-24T04:29:49.474Z,0.85
2023-04-24T04:32:16.950Z,1.10
2023-04-24T04:34:43.893Z,1.00
2023-04-24T04:37:12.113Z,0.90
2023-04-24T04:39:38.882Z,0.95
2023-04-24T04:42:05.586Z,1.10
2023-04-24T04:44:32.232Z,1.10
2023-04-24T04:47:00.127Z,1.20
2023-04-24T04:49:29.460Z,1.30
2023-04-24T04:51:56.411Z,1.10
2023-04-24T04:54:23.064Z,0.80
2023-04-24T04:56:51.654Z,0.93
2023-04-24T04:59:18.325Z,1.15
2023-04-24T05:01:45.004Z,1.45
2023-04-24T05:04:12.000Z,1.50
2023-04-24T05:06:38.767Z,1.27
2023-04-24T05:09:05.414Z,1.10
2023-04-24T05:11:32.069Z,1.60
2023-04-24T05:13:58.708Z,1.50
2023-04-24T05:16:25.443Z,1.50
2023-04-24T05:18:52.132Z,1.58
2023-04-24T05:21:18.822Z,2.28
2023-04-24T05:23:45.500Z,1.30
2023-04-24T05:26:12.159Z,1.63
2023-04-24T05:28:38.857Z,1.25
2023-04-24T05:31:05.657Z,1.48
2023-04-24T05:33:32.426Z,1.77
2023-04-24T05:35:59.310Z,1.55
2023-04-24T05:38:26.113Z,1.92
2023-04-24T05:40:52.908Z,1.83
2023-04-24T05:43:19.648Z,1.30
2023-04-24T05:45:46.815Z,1.60
2023-04-24T05:48:13.510Z,1.67
2023-04-24T05:50:40.986Z,1.23
2023-04-24T05:53:08.238Z,1.52
2023-04-24T05:55:35.064Z,1.38
2023-04-24T05:58:01.701Z,1.45
2023-04-24T06:00:29.704Z,1.60
2023-04-24T06:02:56.671Z,1.60
2023-04-24T06:05:23.703Z,1.63
2023-04-24T06:07:50.989Z,1.90
2023-04-24T06:10:17.958Z,2.00
2023-04-24T06:12:44.719Z,1.80
2023-04-24T06:15:11.742Z,1.65
2023-04-24T06:17:38.503Z,1.70
2023-04-24T06:20:07.093Z,5.57
2023-04-24T06:22:33.826Z,2.72
2023-04-24T06:25:01.675Z,2.38
2023-04-24T06:27:28.386Z,2.10
2023-04-24T06:29:56.119Z,1.65
2023-04-24T06:32:25.014Z,1.48
2023-04-24T06:34:54.741Z,1.20
2023-04-24T06:37:21.969Z,1.58
2023-04-24T06:39:48.798Z,1.30
2023-04-24T06:42:15.498Z,1.60
2023-04-24T06:44:42.310Z,2.85
2023-04-24T06:47:14.526Z,1.35
2023-04-24T06:49:41.722Z,1.35
2023-04-24T06:52:08.827Z,1.58
2023-04-24T06:54:35.478Z,2.10
2023-04-24T06:57:03.467Z,1.40
2023-04-24T06:59:30.789Z,1.10
2023-04-24T07:01:58.127Z,1.50
2023-04-24T07:04:26.513Z,1.40
2023-04-24T07:06:56.791Z,1.40
2023-04-24T07:09:26.548Z,1.50
2023-04-24T07:11:54.460Z,1.40
2023-04-24T07:14:21.713Z,1.05
2023-04-24T07:16:48.396Z,1.50
2023-04-24T07:19:15.425Z,1.55
2023-04-24T07:21:42.573Z,1.30
2023-04-24T07:24:13.806Z,1.80
2023-04-24T07:26:41.241Z,1.17
2023-04-24T07:29:08.485Z,1.58
2023-04-24T07:31:35.451Z,1.60
2023-04-24T07:34:02.352Z,1.65
2023-04-24T07:36:29.200Z,1.70
2023-04-24T07:38:57.381Z,1.33
2023-04-24T07:41:25.376Z,2.00
2023-04-24T07:43:53.533Z,1.80
2023-04-24T07:46:21.002Z,2.17
2023-04-24T07:48:51.497Z,2.05
2023-04-24T07:51:27.204Z,1.70
2023-04-24T07:53:54.439Z,1.67
2023-04-24T07:56:21.504Z,1.40
2023-04-24T07:58:48.208Z,2.15
2023-04-24T08:01:14.889Z,1.45
2023-04-24T08:03:42.518Z,1.60
2023-04-24T08:06:09.696Z,1.20
2023-04-24T08:08:36.361Z,2.33
2023-04-24T08:11:03.118Z,1.63
2023-04-24T08:13:29.812Z,1.63
2023-04-24T08:15:57.891Z,1.38
2023-04-24T08:18:24.649Z,1.73
2023-04-24T08:20:51.349Z,1.60
2023-04-24T08:23:17.994Z,1.45
2023-04-24T08:25:44.744Z,1.60
2023-04-24T08:28:11.884Z,1.45
2023-04-24T08:30:39.494Z,1.73
2023-04-24T08:33:06.335Z,1.50
2023-04-24T08:35:33.099Z,1.25
2023-04-24T08:37:59.772Z,1.50
2023-04-24T08:40:32.542Z,1.63
2023-04-24T08:43:00.191Z,1.20
2023-04-24T08:45:27.096Z,1.50
2023-04-24T08:47:57.874Z,1.20
2023-04-24T08:50:26.133Z,1.42
2023-04-24T08:52:54.535Z,1.80
2023-04-24T08:55:22.230Z,1.35
2023-04-24T08:57:53.810Z,1.45
2023-04-24T09:00:22.156Z,1.25
2023-04-24T09:02:50.973Z,1.40
2023-04-24T09:05:19.851Z,1.55
2023-04-24T09:07:50.397Z,1.50
2023-04-24T09:10:17.091Z,1.52
2023-04-24T09:12:45.036Z,1.55
2023-04-24T09:15:12.599Z,1.50
2023-04-24T09:17:39.646Z,1.20
2023-04-24T09:20:06.867Z,1.30
2023-04-24T09:22:33.595Z,1.42
2023-04-24T09:25:08.816Z,1.58
2023-04-24T09:27:41.977Z,1.60
2023-04-24T09:30:09.196Z,1.70
2023-04-24T09:32:35.925Z,1.25
2023-04-24T09:35:11.928Z,1.20
2023-04-24T09:37:42.382Z,1.25
2023-04-24T09:40:21.815Z,1.35
2023-04-24T09:43:03.872Z,1.10
2023-04-24T09:45:37.804Z,1.17
2023-04-24T09:48:04.981Z,1.45
2023-04-24T09:50:35.606Z,1.25
2023-04-24T09:53:09.819Z,1.30
2023-04-24T09:55:42.152Z,1.77
2023-04-24T09:58:09.322Z,1.23
2023-04-24T10:00:36.058Z,1.02
2023-04-24T10:03:04.436Z,1.00
2023-04-24T10:05:37.858Z,0.90
2023-04-24T10:08:10.032Z,0.90
2023-04-24T10:10:43.889Z,1.20
2023-04-24T10:13:11.995Z,0.90
2023-04-24T10:15:39.591Z,1.20
2023-04-24T10:18:07.618Z,0.85
2023-04-24T10:20:37.856Z,1.02
2023-04-24T10:23:05.213Z,0.98
2023-04-24T10:25:34.376Z,0.90
2023-04-24T10:28:02.406Z,1.50
2023-04-24T10:30:31.575Z,1.10
2023-04-24T10:32:58.312Z,1.17
2023-04-24T10:35:27.689Z,1.17
2023-04-24T10:38:00.370Z,1.10
2023-04-24T10:40:31.527Z,1.20
2023-04-24T10:42:59.035Z,0.90
2023-04-24T10:45:26.708Z,1.17
2023-04-24T10:48:19.591Z,1.30
2023-04-24T10:50:55.363Z,1.30
2023-04-24T10:53:24.378Z,1.77
2023-04-24T10:55:53.132Z,1.48
2023-04-24T10:58:41.063Z,1.63
2023-04-24T11:01:08.540Z,1.20
2023-04-24T11:03:36.642Z,1.80
2023-04-24T11:06:08.401Z,0.90
2023-04-24T11:08:40.637Z,1.10
2023-04-24T11:11:15.780Z,1.65
2023-04-24T11:13:54.512Z,1.70
2023-04-24T11:16:36.153Z,1.40
2023-04-24T11:19:09.048Z,1.40
2023-04-24T11:21:58.891Z,1.20
2023-04-24T11:24:40.614Z,1.20
2023-04-24T11:27:20.605Z,1.40
2023-04-24T11:29:56.620Z,1.27
2023-04-24T11:32:32.553Z,1.80
2023-04-24T11:35:13.993Z,1.52
2023-04-24T11:37:43.929Z,1.10
2023-04-24T11:40:12.675Z,1.20
2023-04-24T11:42:41.803Z,1.10
2023-04-24T11:45:10.854Z,1.25
2023-04-24T11:47:37.921Z,1.10
2023-04-24T11:50:07.159Z,1.27
2023-04-24T11:52:37.726Z,0.90
2023-04-24T11:55:04.941Z,1.13
2023-04-24T11:57:35.445Z,1.10
2023-04-24T12:00:04.485Z,1.02
2023-04-24T12:02:32.078Z,1.55
2023-04-24T12:04:59.221Z,1.00
2023-04-24T12:07:26.178Z,0.80
2023-04-24T12:10:00.952Z,1.30
2023-04-24T12:12:29.415Z,1.20
2023-04-24T12:14:58.141Z,1.20
2023-04-24T12:17:30.381Z,1.35
2023-04-24T12:20:08.720Z,1.08
2023-04-24T12:22:56.006Z,0.98
2023-04-24T12:25:25.243Z,1.65
2023-04-24T12:28:04.109Z,1.30
2023-04-24T12:30:32.476Z,1.50
2023-04-24T12:33:01.350Z,1.27
2023-04-24T12:35:34.407Z,1.13
2023-04-24T12:38:13.982Z,1.20
2023-04-24T12:40:42.557Z,1.42
2023-04-24T12:43:17.199Z,1.92
2023-04-24T12:45:44.264Z,1.80
2023-04-24T12:48:10.986Z,1.27
2023-04-24T12:50:38.806Z,1.00
2023-04-24T12:53:05.674Z,1.27
2023-04-24T12:55:32.401Z,1.60
2023-04-24T12:57:59.286Z,1.80
2023-04-24T13:00:26.076Z,1.08
2023-04-24T13:02:52.924Z,1.13
2023-04-24T13:05:19.778Z,1.30
2023-04-24T13:07:46.439Z,1.40
2023-04-24T13:10:14.317Z,1.40
2023-04-24T13:12:41.352Z,1.50
2023-04-24T13:15:08.646Z,1.20
2023-04-24T13:17:35.356Z,1.02
2023-04-24T13:20:02.075Z,1.00
2023-04-24T13:22:28.775Z,0.85
2023-04-24T13:24:55.572Z,0.80
2023-04-24T13:27:22.219Z,0.95
2023-04-24T13:29:49.002Z,0.90
2023-04-24T13:32:15.970Z,1.10
2023-04-24T13:34:42.891Z,1.23
2023-04-24T13:37:09.620Z,1.00
2023-04-24T13:39:36.407Z,1.05
2023-04-24T13:42:04.660Z,1.30
2023-04-24T13:44:31.890Z,0.88
2023-04-24T13:46:59.584Z,1.27
2023-04-24T13:49:26.928Z,1.80
2023-04-24T13:51:54.949Z,1.83
2023-04-24T13:54:21.656Z,1.83
2023-04-24T13:56:48.352Z,1.48
2023-04-24T13:59:15.254Z,1.63
2023-04-24T14:01:42.099Z,1.50
2023-04-24T14:04:08.983Z,1.88
2023-04-24T14:06:35.834Z,1.58
2023-04-24T14:09:02.514Z,1.25
2023-04-24T14:11:29.556Z,1.10
2023-04-24T14:13:59.415Z,0.90
2023-04-24T14:16:26.398Z,1.10
2023-04-24T14:18:53.146Z,1.15
2023-04-24T14:21:19.798Z,1.10
2023-04-24T14:23:46.752Z,1.25
2023-04-24T14:26:13.674Z,1.30
2023-04-24T14:28:40.645Z,1.23
2023-04-24T14:31:07.409Z,1.77
2023-04-24T14:33:34.069Z,1.92
2023-04-24T14:36:00.902Z,1.40
2023-04-24T14:38:27.685Z,1.50
2023-04-24T14:43:24.001Z,1.30
2023-04-24T14:45:50.906Z,1.45
2023-04-24T14:48:18.699Z,1.40
2023-04-24T14:50:46.237Z,1.65
2023-04-24T14:53:13.031Z,1.50
2023-04-24T14:55:39.701Z,1.38
2023-04-24T14:58:06.466Z,1.58
2023-04-24T15:00:33.273Z,1.40
2023-04-24T15:03:01.348Z,1.65
2023-04-24T15:05:28.463Z,1.52
2023-04-24T15:07:55.709Z,1.70
2023-04-24T15:10:24.005Z,1.35
2023-04-24T15:12:50.903Z,1.88
2023-04-24T15:15:17.738Z,1.60
2023-04-24T15:17:44.397Z,1.80
2023-04-24T15:20:11.265Z,1.33
2023-04-24T15:22:37.951Z,1.58
2023-04-24T15:25:06.685Z,2.00
2023-04-24T15:27:46.603Z,1.77
2023-04-24T15:30:14.380Z,1.45
2023-04-24T15:32:41.359Z,1.88
2023-04-24T15:35:10.184Z,1.45
2023-04-24T15:37:38.237Z,1.83
2023-04-24T15:40:07.879Z,1.92
2023-04-24T15:42:35.032Z,2.38
2023-04-24T15:45:01.753Z,1.60
2023-04-24T15:47:28.486Z,1.65
2023-04-24T15:49:55.187Z,2.00
2023-04-24T15:52:22.498Z,1.70
2023-04-24T15:54:49.753Z,1.98
2023-04-24T15:57:16.558Z,2.08
2023-04-24T15:59:44.087Z,1.98
2023-04-24T16:02:12.390Z,1.40
2023-04-24T16:04:39.624Z,1.92
2023-04-24T16:07:06.523Z,1.67
2023-04-24T16:09:33.191Z,1.58
2023-04-24T16:11:59.874Z,1.90
2023-04-24T16:14:26.977Z,1.70
2023-04-24T16:16:55.412Z,1.75
2023-04-24T16:19:22.246Z,1.75
2023-04-24T16:21:48.923Z,1.63
2023-04-24T16:24:15.575Z,1.95
2023-04-24T16:26:42.354Z,2.22
2023-04-24T16:29:09.014Z,2.20
2023-04-24T16:31:35.808Z,1.90
2023-04-24T16:34:02.532Z,1.70
2023-04-24T16:36:29.198Z,3.47
2023-04-24T16:38:56.074Z,3.25
2023-04-24T16:41:22.750Z,3.10
2023-04-24T16:43:49.487Z,2.88
2023-04-24T16:46:16.198Z,3.72
2023-04-24T16:48:43.124Z,2.42
2023-04-24T16:51:09.777Z,2.63
2023-04-24T16:53:36.543Z,2.65
2023-04-24T16:56:03.868Z,2.00
2023-04-24T16:58:31.382Z,2.25
2023-04-24T17:00:58.573Z,2.20
2023-04-24T17:03:25.862Z,2.05
2023-04-24T17:05:52.653Z,2.10
2023-04-24T17:08:19.607Z,2.17
2023-04-24T17:10:46.305Z,1.85
2023-04-24T17:13:14.396Z,1.70
2023-04-24T17:15:42.419Z,1.60
2023-04-24T17:18:09.135Z,1.63
2023-04-24T17:20:35.839Z,1.67
2023-04-24T17:23:02.517Z,1.50
2023-04-24T17:25:29.767Z,1.50
2023-04-24T17:27:56.609Z,1.80
2023-04-24T17:30:23.323Z,1.90
2023-04-24T17:32:50.036Z,1.75
2023-04-24T17:35:16.926Z,1.85
2023-04-24T17:37:43.758Z,1.73
2023-04-24T17:40:11.537Z,1.52
2023-04-24T17:42:41.653Z,1.67
2023-04-24T17:45:09.117Z,1.55
2023-04-24T17:47:35.937Z,1.80
2023-04-24T17:50:03.006Z,1.58
2023-04-24T17:52:29.819Z,1.70
2023-04-24T17:54:56.614Z,2.28
2023-04-24T17:57:23.471Z,1.92
2023-04-24T17:59:50.253Z,1.63
2023-04-24T18:02:17.091Z,1.80
2023-04-24T18:04:44.217Z,1.90
2023-04-24T18:07:11.251Z,1.58
2023-04-24T18:09:37.992Z,2.15
2023-04-24T18:12:05.501Z,1.70
2023-04-24T18:14:32.207Z,1.70
2023-04-24T18:16:59.148Z,1.77
2023-04-24T18:19:25.897Z,1.73
2023-04-24T18:21:52.591Z,1.88
2023-04-24T18:24:21.904Z,1.75
2023-04-24T18:26:48.555Z,2.00
2023-04-24T18:29:15.386Z,1.92
2023-04-24T18:31:42.103Z,1.67
2023-04-24T18:34:09.177Z,1.88
2023-04-24T18:36:35.842Z,1.88
2023-04-24T18:39:04.032Z,2.03
2023-04-24T18:41:31.246Z,1.88
2023-04-24T18:44:01.938Z,2.40
2023-04-24T18:46:29.363Z,1.88
2023-04-24T18:48:56.248Z,1.90
2023-04-24T18:51:22.921Z,2.30
2023-04-24T18:53:49.655Z,2.15
2023-04-24T18:56:19.805Z,2.78
2023-04-24T18:58:46.767Z,2.72
2023-04-24T19:01:13.991Z,1.98
2023-04-24T19:03:40.911Z,2.20
2023-04-24T19:06:07.732Z,1.80
2023-04-24T19:08:34.403Z,2.00
2023-04-24T19:11:01.070Z,1.90
2023-04-24T19:13:27.989Z,2.13
2023-04-24T19:15:54.633Z,1.45
2023-04-24T19:18:21.323Z,1.80
2023-04-24T19:20:48.048Z,1.80
2023-04-24T19:23:14.740Z,1.70
2023-04-24T19:25:41.489Z,1.70
2023-04-24T19:28:08.857Z,2.05
2023-04-24T19:30:36.534Z,1.65
2023-04-24T19:33:03.434Z,2.10
2023-04-24T19:35:30.320Z,2.30
2023-04-24T19:37:57.149Z,2.05
2023-04-24T19:40:23.908Z,2.08
2023-04-24T19:42:50.753Z,1.90
2023-04-24T19:45:17.543Z,2.42
2023-04-24T19:47:44.395Z,2.17
2023-04-24T19:50:11.145Z,2.10
2023-04-24T19:52:37.873Z,1.98
2023-04-24T19:55:05.210Z,2.33
2023-04-24T19:57:32.114Z,2.10
2023-04-24T19:59:58.836Z,2.40
2023-04-24T20:02:25.823Z,2.72
2023-04-24T20:04:52.867Z,3.55
2023-04-24T20:07:19.625Z,3.10
2023-04-24T20:09:46.404Z,2.40
2023-04-24T20:12:13.337Z,2.15
2023-04-24T20:14:40.370Z,2.53
2023-04-24T20:17:07.652Z,3.08
2023-04-24T20:19:34.451Z,4.20
2023-04-24T20:22:01.149Z,2.92
2023-04-24T20:24:28.463Z,2.85
2023-04-24T20:26:55.140Z,3.60
2023-04-24T20:29:21.823Z,3.55
2023-04-24T20:31:48.507Z,4.65
2023-04-24T20:34:15.566Z,4.90
2023-04-24T20:36:47.992Z,5.35
2023-04-24T20:39:16.338Z,4.32
2023-04-24T20:41:44.129Z,3.92
2023-04-24T20:44:11.794Z,3.90
2023-04-24T20:46:38.829Z,2.30
2023-04-24T20:49:05.615Z,2.85
2023-04-24T20:51:32.857Z,2.85
2023-04-24T20:53:59.549Z,2.38
2023-04-24T20:56:26.322Z,2.95
2023-04-24T20:58:55.340Z,2.13
2023-04-24T21:01:23.726Z,2.65
2023-04-24T21:03:52.379Z,2.30
2023-04-24T21:06:19.366Z,2.38
2023-04-24T21:08:46.087Z,2.30
2023-04-24T21:11:12.879Z,2.30
2023-04-24T21:13:39.525Z,2.30
2023-04-24T21:16:06.453Z,2.38
2023-04-24T21:18:33.299Z,2.45
2023-04-24T21:21:00.068Z,2.03
2023-04-24T21:23:26.815Z,2.40
2023-04-24T21:25:53.581Z,2.65
2023-04-24T21:28:20.360Z,2.50
2023-04-24T21:30:46.998Z,2.67
2023-04-24T21:33:13.689Z,2.42
2023-04-24T21:35:40.406Z,2.22
2023-04-24T21:38:07.064Z,2.28
2023-04-24T21:40:33.726Z,2.70
2023-04-24T21:43:00.512Z,2.47
2023-04-24T21:45:27.279Z,2.40
2023-04-24T21:47:54.074Z,2.58
2023-04-24T21:50:20.885Z,1.80
2023-04-24T21:52:47.597Z,1.80
2023-04-24T21:55:14.345Z,2.35
2023-04-24T21:57:41.140Z,2.25
2023-04-24T22:00:08.662Z,2.03
2023-04-24T22:02:35.686Z,3.13
2023-04-24T22:05:04.398Z,2.72
2023-04-24T22:07:34.033Z,3.72
2023-04-24T22:10:00.957Z,2.47
2023-04-24T22:12:27.686Z,2.67
2023-04-24T22:14:54.347Z,2.40
2023-04-24T22:17:21.794Z,2.05
2023-04-24T22:19:48.446Z,2.13
2023-04-24T22:22:15.183Z,2.42
2023-04-24T22:24:41.934Z,2.42
2023-04-24T22:27:08.641Z,2.38
2023-04-24T22:29:35.433Z,2.40
2023-04-24T22:32:02.831Z,1.90
2023-04-24T22:34:29.503Z,2.10
2023-04-24T22:36:56.245Z,2.05
2023-04-24T22:39:23.052Z,2.35
2023-04-24T22:41:49.740Z,2.20
2023-04-24T22:44:16.686Z,1.98
2023-04-24T22:46:43.317Z,2.25
2023-04-24T22:49:10.319Z,2.30
2023-04-24T22:51:37.366Z,2.42
2023-04-24T22:54:04.873Z,2.20
2023-04-24T22:56:32.150Z,2.10
2023-04-24T22:58:59.099Z,2.30
2023-04-24T23:01:29.509Z,2.10
2023-04-24T23:03:56.343Z,2.40
2023-04-24T23:06:23.215Z,2.00
2023-04-24T23:08:49.923Z,2.97
2023-04-24T23:11:16.792Z,2.40
2023-04-24T23:13:44.424Z,2.35
2023-04-24T23:16:11.229Z,2.20
2023-04-24T23:18:38.584Z,2.25
2023-04-24T23:21:05.525Z,2.30
2023-04-24T23:23:32.309Z,2.10
2023-04-24T23:26:03.167Z,2.60
2023-04-24T23:28:29.824Z,2.13
2023-04-24T23:30:57.887Z,2.33
2023-04-24T23:33:24.830Z,2.17
2023-04-24T23:35:52.687Z,2.60
2023-04-24T23:38:19.326Z,2.50
2023-04-24T23:40:46.206Z,2.47
2023-04-24T23:43:12.886Z,2.38
2023-04-24T23:45:40.559Z,2.33
2023-04-24T23:48:07.405Z,2.60
2023-04-24T23:50:34.391Z,2.40
2023-04-24T23:53:01.094Z,3.13
2023-04-24T23:55:27.823Z,2.47
2023-04-24T23:57:54.588Z,2.50
